sensor_id;sensor_type;location;lat;lon;timestamp;temperature;humidity
73360;DHT22;63092;43.582;19.528;2024-03-22T00:01:12;10.30;95.20
73360;DHT22;63092;43.582;19.528;2024-03-22T00:03:38;10.30;95.40
73360;DHT22;63092;43.582;19.528;2024-03-22T00:06:04;10.30;95.60
73360;DHT22;63092;43.582;19.528;2024-03-22T00:08:30;10.20;95.80
73360;DHT22;63092;43.582;19.528;2024-03-22T00:10:56;10.10;96.30
73360;DHT22;63092;43.582;19.528;2024-03-22T00:13:21;10.10;96.70
73360;DHT22;63092;43.582;19.528;2024-03-22T00:15:47;10.10;96.80
73360;DHT22;63092;43.582;19.528;2024-03-22T00:18:13;10.10;96.90
73360;DHT22;63092;43.582;19.528;2024-03-22T00:20:39;10.10;96.90
73360;DHT22;63092;43.582;19.528;2024-03-22T00:23:04;10.10;97.20
73360;DHT22;63092;43.582;19.528;2024-03-22T00:25:31;10.10;97.40
73360;DHT22;63092;43.582;19.528;2024-03-22T00:27:56;10.20;97.40
73360;DHT22;63092;43.582;19.528;2024-03-22T00:30:22;10.20;97.50
73360;DHT22;63092;43.582;19.528;2024-03-22T00:32:48;10.10;97.80
73360;DHT22;63092;43.582;19.528;2024-03-22T00:35:14;10.20;97.80
73360;DHT22;63092;43.582;19.528;2024-03-22T00:37:39;10.10;97.60
73360;DHT22;63092;43.582;19.528;2024-03-22T00:40:06;10.10;97.60
73360;DHT22;63092;43.582;19.528;2024-03-22T00:42:31;10.20;97.50
73360;DHT22;63092;43.582;19.528;2024-03-22T00:44:57;10.10;97.80
73360;DHT22;63092;43.582;19.528;2024-03-22T00:47:23;10.00;97.50
73360;DHT22;63092;43.582;19.528;2024-03-22T00:49:49;10.00;97.50
73360;DHT22;63092;43.582;19.528;2024-03-22T00:52:15;10.00;97.80
73360;DHT22;63092;43.582;19.528;2024-03-22T00:54:41;10.00;97.50
73360;DHT22;63092;43.582;19.528;2024-03-22T00:57:07;10.00;97.60
73360;DHT22;63092;43.582;19.528;2024-03-22T00:59:32;10.00;97.90
73360;DHT22;63092;43.582;19.528;2024-03-22T01:01:58;10.00;97.10
73360;DHT22;63092;43.582;19.528;2024-03-22T01:04:24;10.00;97.00
73360;DHT22;63092;43.582;19.528;2024-03-22T01:06:50;10.00;97.00
73360;DHT22;63092;43.582;19.528;2024-03-22T01:09:16;10.00;97.20
73360;DHT22;63092;43.582;19.528;2024-03-22T01:11:41;9.90;97.60
73360;DHT22;63092;43.582;19.528;2024-03-22T01:14:07;9.90;97.80
73360;DHT22;63092;43.582;19.528;2024-03-22T01:16:33;9.90;98.10
73360;DHT22;63092;43.582;19.528;2024-03-22T01:18:58;9.90;98.30
73360;DHT22;63092;43.582;19.528;2024-03-22T01:21:24;9.90;98.50
73360;DHT22;63092;43.582;19.528;2024-03-22T01:23:53;9.80;98.50
73360;DHT22;63092;43.582;19.528;2024-03-22T01:26:19;9.80;98.50
73360;DHT22;63092;43.582;19.528;2024-03-22T01:28:46;9.80;98.60
73360;DHT22;63092;43.582;19.528;2024-03-22T01:31:11;9.80;98.60
73360;DHT22;63092;43.582;19.528;2024-03-22T01:33:37;9.80;99.40
73360;DHT22;63092;43.582;19.528;2024-03-22T01:36:03;9.70;99.00
73360;DHT22;63092;43.582;19.528;2024-03-22T01:38:31;9.70;98.70
73360;DHT22;63092;43.582;19.528;2024-03-22T01:40:56;9.70;98.70
73360;DHT22;63092;43.582;19.528;2024-03-22T01:43:22;9.70;99.00
73360;DHT22;63092;43.582;19.528;2024-03-22T01:45:48;9.70;98.60
73360;DHT22;63092;43.582;19.528;2024-03-22T01:48:14;9.60;98.70
73360;DHT22;63092;43.582;19.528;2024-03-22T01:50:40;9.70;99.10
73360;DHT22;63092;43.582;19.528;2024-03-22T01:55:32;9.70;99.00
73360;DHT22;63092;43.582;19.528;2024-03-22T01:57:58;9.60;99.50
73360;DHT22;63092;43.582;19.528;2024-03-22T02:00:24;9.60;99.60
73360;DHT22;63092;43.582;19.528;2024-03-22T02:02:50;9.60;99.90
73360;DHT22;63092;43.582;19.528;2024-03-22T02:05:17;9.60;99.90
73360;DHT22;63092;43.582;19.528;2024-03-22T02:07:46;9.60;99.90
73360;DHT22;63092;43.582;19.528;2024-03-22T02:10:12;9.60;99.90
73360;DHT22;63092;43.582;19.528;2024-03-22T02:12:39;9.60;99.90
73360;DHT22;63092;43.582;19.528;2024-03-22T02:15:05;9.60;99.90
73360;DHT22;63092;43.582;19.528;2024-03-22T02:17:32;9.60;99.90
73360;DHT22;63092;43.582;19.528;2024-03-22T02:19:59;9.60;99.90
73360;DHT22;63092;43.582;19.528;2024-03-22T02:22:25;9.60;99.90
73360;DHT22;63092;43.582;19.528;2024-03-22T02:24:51;9.60;99.90
73360;DHT22;63092;43.582;19.528;2024-03-22T02:27:17;9.60;99.90
73360;DHT22;63092;43.582;19.528;2024-03-22T02:29:43;9.60;99.90
73360;DHT22;63092;43.582;19.528;2024-03-22T02:32:09;9.50;99.90
73360;DHT22;63092;43.582;19.528;2024-03-22T02:34:36;9.50;99.90
73360;DHT22;63092;43.582;19.528;2024-03-22T02:37:01;9.50;99.90
73360;DHT22;63092;43.582;19.528;2024-03-22T02:39:27;9.50;99.90
73360;DHT22;63092;43.582;19.528;2024-03-22T02:41:54;9.40;99.90
73360;DHT22;63092;43.582;19.528;2024-03-22T02:44:20;9.40;99.90
73360;DHT22;63092;43.582;19.528;2024-03-22T02:46:45;9.40;99.90
73360;DHT22;63092;43.582;19.528;2024-03-22T02:49:11;9.30;99.90
73360;DHT22;63092;43.582;19.528;2024-03-22T02:51:37;9.20;99.90
73360;DHT22;63092;43.582;19.528;2024-03-22T02:54:03;9.20;99.90
73360;DHT22;63092;43.582;19.528;2024-03-22T02:56:29;9.20;99.90
73360;DHT22;63092;43.582;19.528;2024-03-22T02:58:55;9.10;99.90
73360;DHT22;63092;43.582;19.528;2024-03-22T03:01:20;9.10;99.90
73360;DHT22;63092;43.582;19.528;2024-03-22T03:03:46;9.00;99.90
73360;DHT22;63092;43.582;19.528;2024-03-22T03:06:12;8.90;99.90
73360;DHT22;63092;43.582;19.528;2024-03-22T03:08:42;8.90;99.90
73360;DHT22;63092;43.582;19.528;2024-03-22T03:11:08;8.90;99.90
73360;DHT22;63092;43.582;19.528;2024-03-22T03:13:33;8.90;99.90
73360;DHT22;63092;43.582;19.528;2024-03-22T03:15:59;8.90;99.90
73360;DHT22;63092;43.582;19.528;2024-03-22T03:18:25;8.90;99.90
73360;DHT22;63092;43.582;19.528;2024-03-22T03:20:50;8.90;99.90
73360;DHT22;63092;43.582;19.528;2024-03-22T03:23:16;8.90;99.90
73360;DHT22;63092;43.582;19.528;2024-03-22T03:28:08;8.80;99.90
73360;DHT22;63092;43.582;19.528;2024-03-22T03:30:36;8.80;99.90
73360;DHT22;63092;43.582;19.528;2024-03-22T03:33:02;8.80;99.90
73360;DHT22;63092;43.582;19.528;2024-03-22T03:35:28;8.80;99.90
73360;DHT22;63092;43.582;19.528;2024-03-22T03:37:55;8.80;99.90
73360;DHT22;63092;43.582;19.528;2024-03-22T03:40:20;8.80;99.90
73360;DHT22;63092;43.582;19.528;2024-03-22T03:42:47;8.80;99.90
73360;DHT22;63092;43.582;19.528;2024-03-22T03:45:13;8.70;99.90
73360;DHT22;63092;43.582;19.528;2024-03-22T03:47:38;8.70;99.90
73360;DHT22;63092;43.582;19.528;2024-03-22T03:50:04;8.50;99.90
73360;DHT22;63092;43.582;19.528;2024-03-22T03:52:30;8.50;99.90
73360;DHT22;63092;43.582;19.528;2024-03-22T03:54:56;8.50;99.90
73360;DHT22;63092;43.582;19.528;2024-03-22T03:57:21;8.50;99.90
73360;DHT22;63092;43.582;19.528;2024-03-22T03:59:47;8.50;99.90
73360;DHT22;63092;43.582;19.528;2024-03-22T04:02:13;8.50;99.90
73360;DHT22;63092;43.582;19.528;2024-03-22T04:04:39;8.50;99.90
73360;DHT22;63092;43.582;19.528;2024-03-22T04:07:05;8.50;99.90
73360;DHT22;63092;43.582;19.528;2024-03-22T04:09:31;8.50;99.90
73360;DHT22;63092;43.582;19.528;2024-03-22T04:11:57;8.60;99.90
73360;DHT22;63092;43.582;19.528;2024-03-22T04:14:25;8.60;99.90
73360;DHT22;63092;43.582;19.528;2024-03-22T04:16:50;8.60;99.90
73360;DHT22;63092;43.582;19.528;2024-03-22T04:19:16;8.60;99.90
73360;DHT22;63092;43.582;19.528;2024-03-22T04:21:42;8.60;99.90
73360;DHT22;63092;43.582;19.528;2024-03-22T04:24:08;8.60;99.90
73360;DHT22;63092;43.582;19.528;2024-03-22T04:26:33;8.60;99.90
73360;DHT22;63092;43.582;19.528;2024-03-22T04:28:59;8.50;99.90
73360;DHT22;63092;43.582;19.528;2024-03-22T04:31:25;8.50;99.90
73360;DHT22;63092;43.582;19.528;2024-03-22T04:33:51;8.50;99.90
73360;DHT22;63092;43.582;19.528;2024-03-22T04:36:16;8.40;99.90
73360;DHT22;63092;43.582;19.528;2024-03-22T04:38:42;8.40;99.90
73360;DHT22;63092;43.582;19.528;2024-03-22T04:41:08;8.50;99.90
73360;DHT22;63092;43.582;19.528;2024-03-22T04:43:34;8.40;99.90
73360;DHT22;63092;43.582;19.528;2024-03-22T04:46:00;8.40;99.90
73360;DHT22;63092;43.582;19.528;2024-03-22T04:48:26;8.20;99.90
73360;DHT22;63092;43.582;19.528;2024-03-22T04:50:52;8.00;99.90
73360;DHT22;63092;43.582;19.528;2024-03-22T04:53:19;8.00;99.90
73360;DHT22;63092;43.582;19.528;2024-03-22T04:55:47;7.80;99.90
73360;DHT22;63092;43.582;19.528;2024-03-22T04:58:18;7.70;99.90
73360;DHT22;63092;43.582;19.528;2024-03-22T05:00:46;7.80;99.90
73360;DHT22;63092;43.582;19.528;2024-03-22T05:03:12;7.90;99.90
73360;DHT22;63092;43.582;19.528;2024-03-22T05:05:38;8.00;99.90
73360;DHT22;63092;43.582;19.528;2024-03-22T05:08:05;8.10;99.90
73360;DHT22;63092;43.582;19.528;2024-03-22T05:10:31;8.20;99.90
73360;DHT22;63092;43.582;19.528;2024-03-22T05:12:57;8.20;99.90
73360;DHT22;63092;43.582;19.528;2024-03-22T05:15:23;8.30;99.90
73360;DHT22;63092;43.582;19.528;2024-03-22T05:17:51;8.40;99.90
73360;DHT22;63092;43.582;19.528;2024-03-22T05:20:17;8.40;99.90
73360;DHT22;63092;43.582;19.528;2024-03-22T05:22:43;8.40;99.90
73360;DHT22;63092;43.582;19.528;2024-03-22T05:25:09;8.50;99.90
73360;DHT22;63092;43.582;19.528;2024-03-22T05:27:35;8.40;99.90
73360;DHT22;63092;43.582;19.528;2024-03-22T05:30:01;8.50;99.90
73360;DHT22;63092;43.582;19.528;2024-03-22T05:32:29;8.50;99.90
73360;DHT22;63092;43.582;19.528;2024-03-22T05:34:55;8.50;99.90
73360;DHT22;63092;43.582;19.528;2024-03-22T05:37:21;8.60;99.90
73360;DHT22;63092;43.582;19.528;2024-03-22T05:39:46;8.60;99.90
73360;DHT22;63092;43.582;19.528;2024-03-22T05:42:13;8.70;99.90
73360;DHT22;63092;43.582;19.528;2024-03-22T05:44:38;8.70;99.90
73360;DHT22;63092;43.582;19.528;2024-03-22T05:47:04;8.70;99.90
73360;DHT22;63092;43.582;19.528;2024-03-22T05:49:30;8.80;99.90
73360;DHT22;63092;43.582;19.528;2024-03-22T05:51:56;8.80;99.90
73360;DHT22;63092;43.582;19.528;2024-03-22T05:54:22;8.80;99.90
73360;DHT22;63092;43.582;19.528;2024-03-22T05:56:48;8.80;99.90
73360;DHT22;63092;43.582;19.528;2024-03-22T05:59:13;8.80;99.90
73360;DHT22;63092;43.582;19.528;2024-03-22T06:01:39;8.90;99.90
73360;DHT22;63092;43.582;19.528;2024-03-22T06:04:05;8.90;99.90
73360;DHT22;63092;43.582;19.528;2024-03-22T06:06:33;8.90;99.90
73360;DHT22;63092;43.582;19.528;2024-03-22T06:08:59;8.90;99.90
73360;DHT22;63092;43.582;19.528;2024-03-22T06:11:29;8.90;99.90
73360;DHT22;63092;43.582;19.528;2024-03-22T06:13:55;8.70;99.90
73360;DHT22;63092;43.582;19.528;2024-03-22T06:16:21;8.70;99.90
73360;DHT22;63092;43.582;19.528;2024-03-22T06:18:47;8.60;99.90
73360;DHT22;63092;43.582;19.528;2024-03-22T06:21:13;8.50;99.90
73360;DHT22;63092;43.582;19.528;2024-03-22T06:23:49;8.50;99.90
73360;DHT22;63092;43.582;19.528;2024-03-22T06:26:14;8.50;99.90
73360;DHT22;63092;43.582;19.528;2024-03-22T06:28:40;8.60;99.90
73360;DHT22;63092;43.582;19.528;2024-03-22T06:31:06;8.70;99.90
73360;DHT22;63092;43.582;19.528;2024-03-22T06:33:32;8.70;99.90
73360;DHT22;63092;43.582;19.528;2024-03-22T06:35:57;8.70;99.90
73360;DHT22;63092;43.582;19.528;2024-03-22T06:38:23;8.60;99.90
73360;DHT22;63092;43.582;19.528;2024-03-22T06:40:49;8.50;99.90
73360;DHT22;63092;43.582;19.528;2024-03-22T06:43:14;8.60;99.90
73360;DHT22;63092;43.582;19.528;2024-03-22T06:45:40;8.70;99.90
73360;DHT22;63092;43.582;19.528;2024-03-22T06:48:06;8.80;99.90
73360;DHT22;63092;43.582;19.528;2024-03-22T06:50:31;8.90;99.90
73360;DHT22;63092;43.582;19.528;2024-03-22T06:52:57;8.90;99.90
73360;DHT22;63092;43.582;19.528;2024-03-22T06:55:23;9.00;99.90
73360;DHT22;63092;43.582;19.528;2024-03-22T06:57:49;9.10;99.90
73360;DHT22;63092;43.582;19.528;2024-03-22T07:00:16;9.10;99.90
73360;DHT22;63092;43.582;19.528;2024-03-22T07:02:43;9.20;99.90
73360;DHT22;63092;43.582;19.528;2024-03-22T07:05:10;9.20;99.90
73360;DHT22;63092;43.582;19.528;2024-03-22T07:07:36;9.30;99.90
73360;DHT22;63092;43.582;19.528;2024-03-22T07:10:03;9.40;99.90
73360;DHT22;63092;43.582;19.528;2024-03-22T07:12:31;9.50;99.90
73360;DHT22;63092;43.582;19.528;2024-03-22T07:14:59;9.60;99.90
73360;DHT22;63092;43.582;19.528;2024-03-22T07:17:24;9.70;99.90
73360;DHT22;63092;43.582;19.528;2024-03-22T07:19:51;9.90;99.00
73360;DHT22;63092;43.582;19.528;2024-03-22T07:22:17;10.00;99.20
73360;DHT22;63092;43.582;19.528;2024-03-22T07:24:43;10.00;99.00
73360;DHT22;63092;43.582;19.528;2024-03-22T07:27:10;9.90;98.60
73360;DHT22;63092;43.582;19.528;2024-03-22T07:29:36;9.80;99.10
73360;DHT22;63092;43.582;19.528;2024-03-22T07:32:01;9.80;98.60
73360;DHT22;63092;43.582;19.528;2024-03-22T07:34:29;9.70;98.80
73360;DHT22;63092;43.582;19.528;2024-03-22T07:36:54;9.80;98.40
73360;DHT22;63092;43.582;19.528;2024-03-22T07:39:20;9.80;98.00
73360;DHT22;63092;43.582;19.528;2024-03-22T07:41:46;9.90;97.00
73360;DHT22;63092;43.582;19.528;2024-03-22T07:44:11;10.00;96.80
73360;DHT22;63092;43.582;19.528;2024-03-22T07:46:37;10.00;95.70
73360;DHT22;63092;43.582;19.528;2024-03-22T07:49:03;10.10;96.00
73360;DHT22;63092;43.582;19.528;2024-03-22T07:51:30;10.20;95.20
73360;DHT22;63092;43.582;19.528;2024-03-22T07:53:56;10.30;95.30
73360;DHT22;63092;43.582;19.528;2024-03-22T07:56:22;10.40;95.30
73360;DHT22;63092;43.582;19.528;2024-03-22T07:58:48;10.50;94.70
73360;DHT22;63092;43.582;19.528;2024-03-22T08:01:14;10.60;94.60
73360;DHT22;63092;43.582;19.528;2024-03-22T08:03:39;10.60;93.40
73360;DHT22;63092;43.582;19.528;2024-03-22T08:06:05;10.70;93.10
73360;DHT22;63092;43.582;19.528;2024-03-22T08:08:31;10.70;92.70
73360;DHT22;63092;43.582;19.528;2024-03-22T08:10:57;10.90;92.80
73360;DHT22;63092;43.582;19.528;2024-03-22T08:13:22;11.00;93.60
73360;DHT22;63092;43.582;19.528;2024-03-22T08:15:48;11.20;93.00
73360;DHT22;63092;43.582;19.528;2024-03-22T08:18:14;11.20;92.70
73360;DHT22;63092;43.582;19.528;2024-03-22T08:20:39;11.20;92.40
73360;DHT22;63092;43.582;19.528;2024-03-22T08:23:05;11.20;92.50
73360;DHT22;63092;43.582;19.528;2024-03-22T08:25:31;11.30;91.80
73360;DHT22;63092;43.582;19.528;2024-03-22T08:27:57;11.30;91.70
73360;DHT22;63092;43.582;19.528;2024-03-22T08:30:24;11.40;91.60
73360;DHT22;63092;43.582;19.528;2024-03-22T08:32:51;11.60;92.00
73360;DHT22;63092;43.582;19.528;2024-03-22T08:35:17;11.80;91.40
73360;DHT22;63092;43.582;19.528;2024-03-22T08:37:42;11.90;92.10
73360;DHT22;63092;43.582;19.528;2024-03-22T08:40:08;12.10;91.10
73360;DHT22;63092;43.582;19.528;2024-03-22T08:42:35;12.10;91.30
73360;DHT22;63092;43.582;19.528;2024-03-22T08:45:01;12.20;91.30
73360;DHT22;63092;43.582;19.528;2024-03-22T08:47:27;12.30;90.80
73360;DHT22;63092;43.582;19.528;2024-03-22T08:49:52;12.40;90.80
73360;DHT22;63092;43.582;19.528;2024-03-22T08:52:18;12.50;90.50
73360;DHT22;63092;43.582;19.528;2024-03-22T08:54:44;12.60;90.30
73360;DHT22;63092;43.582;19.528;2024-03-22T08:57:10;12.70;90.20
73360;DHT22;63092;43.582;19.528;2024-03-22T08:59:35;12.80;89.50
73360;DHT22;63092;43.582;19.528;2024-03-22T09:02:03;12.90;90.00
73360;DHT22;63092;43.582;19.528;2024-03-22T09:04:29;13.00;88.70
73360;DHT22;63092;43.582;19.528;2024-03-22T09:06:54;13.10;87.00
73360;DHT22;63092;43.582;19.528;2024-03-22T09:09:20;13.30;84.70
73360;DHT22;63092;43.582;19.528;2024-03-22T09:11:46;13.50;83.50
73360;DHT22;63092;43.582;19.528;2024-03-22T09:14:11;13.80;82.10
73360;DHT22;63092;43.582;19.528;2024-03-22T09:16:37;13.90;78.60
73360;DHT22;63092;43.582;19.528;2024-03-22T09:19:03;14.00;77.20
73360;DHT22;63092;43.582;19.528;2024-03-22T09:21:29;14.20;77.80
73360;DHT22;63092;43.582;19.528;2024-03-22T09:23:56;14.20;76.10
73360;DHT22;63092;43.582;19.528;2024-03-22T09:26:22;14.40;75.60
73360;DHT22;63092;43.582;19.528;2024-03-22T09:28:49;14.50;75.50
73360;DHT22;63092;43.582;19.528;2024-03-22T09:31:16;14.60;74.50
73360;DHT22;63092;43.582;19.528;2024-03-22T09:33:43;14.60;74.50
73360;DHT22;63092;43.582;19.528;2024-03-22T09:36:09;14.70;73.80
73360;DHT22;63092;43.582;19.528;2024-03-22T09:38:35;14.80;73.00
73360;DHT22;63092;43.582;19.528;2024-03-22T09:41:00;14.90;72.90
73360;DHT22;63092;43.582;19.528;2024-03-22T09:43:27;14.90;72.00
73360;DHT22;63092;43.582;19.528;2024-03-22T09:45:55;15.10;72.70
73360;DHT22;63092;43.582;19.528;2024-03-22T09:48:22;15.20;70.30
73360;DHT22;63092;43.582;19.528;2024-03-22T09:50:49;15.30;70.90
73360;DHT22;63092;43.582;19.528;2024-03-22T09:53:21;15.50;69.80
73360;DHT22;63092;43.582;19.528;2024-03-22T09:55:48;15.60;68.60
73360;DHT22;63092;43.582;19.528;2024-03-22T09:58:15;15.60;68.40
73360;DHT22;63092;43.582;19.528;2024-03-22T10:00:44;15.70;67.90
73360;DHT22;63092;43.582;19.528;2024-03-22T10:03:10;15.70;68.00
73360;DHT22;63092;43.582;19.528;2024-03-22T10:05:36;15.80;68.20
73360;DHT22;63092;43.582;19.528;2024-03-22T10:08:05;15.80;66.70
73360;DHT22;63092;43.582;19.528;2024-03-22T10:10:32;15.90;67.30
73360;DHT22;63092;43.582;19.528;2024-03-22T10:13:03;16.10;68.70
73360;DHT22;63092;43.582;19.528;2024-03-22T10:15:30;16.10;62.30
73360;DHT22;63092;43.582;19.528;2024-03-22T10:17:57;16.10;59.70
73360;DHT22;63092;43.582;19.528;2024-03-22T10:20:23;16.20;61.40
73360;DHT22;63092;43.582;19.528;2024-03-22T10:22:53;16.10;59.60
73360;DHT22;63092;43.582;19.528;2024-03-22T10:25:20;16.20;60.60
73360;DHT22;63092;43.582;19.528;2024-03-22T10:27:47;16.00;59.80
73360;DHT22;63092;43.582;19.528;2024-03-22T10:30:15;15.90;60.00
73360;DHT22;63092;43.582;19.528;2024-03-22T10:32:44;16.00;60.70
73360;DHT22;63092;43.582;19.528;2024-03-22T10:35:13;16.00;59.70
73360;DHT22;63092;43.582;19.528;2024-03-22T10:37:40;16.00;60.30
73360;DHT22;63092;43.582;19.528;2024-03-22T10:40:06;16.20;61.50
73360;DHT22;63092;43.582;19.528;2024-03-22T10:42:41;16.20;61.00
73360;DHT22;63092;43.582;19.528;2024-03-22T10:45:08;16.30;60.90
73360;DHT22;63092;43.582;19.528;2024-03-22T10:47:35;16.40;60.90
73360;DHT22;63092;43.582;19.528;2024-03-22T10:50:08;16.50;62.10
73360;DHT22;63092;43.582;19.528;2024-03-22T10:52:48;16.60;60.50
73360;DHT22;63092;43.582;19.528;2024-03-22T10:55:37;16.90;61.70
73360;DHT22;63092;43.582;19.528;2024-03-22T10:58:01;17.00;61.40
73360;DHT22;63092;43.582;19.528;2024-03-22T11:00:28;17.00;60.60
73360;DHT22;63092;43.582;19.528;2024-03-22T11:02:55;17.20;61.00
73360;DHT22;63092;43.582;19.528;2024-03-22T11:05:21;17.20;60.20
73360;DHT22;63092;43.582;19.528;2024-03-22T11:07:47;17.00;59.60
73360;DHT22;63092;43.582;19.528;2024-03-22T11:10:14;16.90;59.90
73360;DHT22;63092;43.582;19.528;2024-03-22T11:12:40;16.90;60.10
73360;DHT22;63092;43.582;19.528;2024-03-22T11:15:07;16.80;59.80
73360;DHT22;63092;43.582;19.528;2024-03-22T11:17:32;16.80;60.70
73360;DHT22;63092;43.582;19.528;2024-03-22T11:19:58;16.60;60.00
73360;DHT22;63092;43.582;19.528;2024-03-22T11:22:25;16.60;60.30
73360;DHT22;63092;43.582;19.528;2024-03-22T11:24:52;16.70;60.80
73360;DHT22;63092;43.582;19.528;2024-03-22T11:27:18;16.90;60.60
73360;DHT22;63092;43.582;19.528;2024-03-22T11:29:45;16.90;60.20
73360;DHT22;63092;43.582;19.528;2024-03-22T11:32:12;17.00;60.00
73360;DHT22;63092;43.582;19.528;2024-03-22T11:34:39;17.10;59.70
73360;DHT22;63092;43.582;19.528;2024-03-22T11:37:07;17.10;60.00
73360;DHT22;63092;43.582;19.528;2024-03-22T11:39:39;17.20;60.20
73360;DHT22;63092;43.582;19.528;2024-03-22T11:42:06;17.10;59.70
73360;DHT22;63092;43.582;19.528;2024-03-22T11:44:36;17.20;60.00
73360;DHT22;63092;43.582;19.528;2024-03-22T11:47:03;17.30;60.20
73360;DHT22;63092;43.582;19.528;2024-03-22T11:49:29;17.50;59.10
73360;DHT22;63092;43.582;19.528;2024-03-22T11:51:56;17.50;58.80
73360;DHT22;63092;43.582;19.528;2024-03-22T11:54:22;17.50;59.40
73360;DHT22;63092;43.582;19.528;2024-03-22T11:56:49;17.60;60.20
73360;DHT22;63092;43.582;19.528;2024-03-22T11:59:17;17.80;60.10
73360;DHT22;63092;43.582;19.528;2024-03-22T12:01:44;17.90;60.20
73360;DHT22;63092;43.582;19.528;2024-03-22T12:04:11;18.10;59.40
73360;DHT22;63092;43.582;19.528;2024-03-22T12:06:42;18.00;58.70
73360;DHT22;63092;43.582;19.528;2024-03-22T12:09:08;18.00;59.10
73360;DHT22;63092;43.582;19.528;2024-03-22T12:11:36;18.00;58.20
73360;DHT22;63092;43.582;19.528;2024-03-22T12:14:02;18.10;58.70
73360;DHT22;63092;43.582;19.528;2024-03-22T12:16:28;18.20;57.90
73360;DHT22;63092;43.582;19.528;2024-03-22T12:21:19;18.30;57.30
73360;DHT22;63092;43.582;19.528;2024-03-22T12:23:45;18.40;58.20
73360;DHT22;63092;43.582;19.528;2024-03-22T12:26:11;18.20;57.30
73360;DHT22;63092;43.582;19.528;2024-03-22T12:28:36;17.90;57.30
73360;DHT22;63092;43.582;19.528;2024-03-22T12:31:04;17.80;58.30
73360;DHT22;63092;43.582;19.528;2024-03-22T12:33:30;17.80;58.80
73360;DHT22;63092;43.582;19.528;2024-03-22T12:35:55;17.70;58.50
73360;DHT22;63092;43.582;19.528;2024-03-22T12:38:21;17.60;58.00
73360;DHT22;63092;43.582;19.528;2024-03-22T12:40:47;17.50;58.90
73360;DHT22;63092;43.582;19.528;2024-03-22T12:43:13;17.70;59.20
73360;DHT22;63092;43.582;19.528;2024-03-22T12:45:39;17.90;59.40
73360;DHT22;63092;43.582;19.528;2024-03-22T12:48:05;18.10;59.10
73360;DHT22;63092;43.582;19.528;2024-03-22T12:50:31;18.30;57.60
73360;DHT22;63092;43.582;19.528;2024-03-22T12:52:57;18.50;57.80
73360;DHT22;63092;43.582;19.528;2024-03-22T12:55:22;18.60;66.60
73360;DHT22;63092;43.582;19.528;2024-03-22T12:57:48;18.30;62.20
73360;DHT22;63092;43.582;19.528;2024-03-22T13:00:14;18.20;62.30
73360;DHT22;63092;43.582;19.528;2024-03-22T13:02:44;18.20;63.10
73360;DHT22;63092;43.582;19.528;2024-03-22T13:05:10;18.10;64.00
73360;DHT22;63092;43.582;19.528;2024-03-22T13:07:36;18.10;62.60
73360;DHT22;63092;43.582;19.528;2024-03-22T13:10:02;17.90;55.30
73360;DHT22;63092;43.582;19.528;2024-03-22T13:12:29;17.90;55.50
73360;DHT22;63092;43.582;19.528;2024-03-22T13:15:00;18.00;54.60
73360;DHT22;63092;43.582;19.528;2024-03-22T13:17:26;18.10;54.00
73360;DHT22;63092;43.582;19.528;2024-03-22T13:19:52;18.10;55.20
73360;DHT22;63092;43.582;19.528;2024-03-22T13:22:18;18.10;55.30
73360;DHT22;63092;43.582;19.528;2024-03-22T13:24:47;18.10;55.00
73360;DHT22;63092;43.582;19.528;2024-03-22T13:27:13;18.10;55.70
73360;DHT22;63092;43.582;19.528;2024-03-22T13:29:40;18.20;55.30
73360;DHT22;63092;43.582;19.528;2024-03-22T13:32:06;18.30;55.30
73360;DHT22;63092;43.582;19.528;2024-03-22T13:34:35;18.40;57.10
73360;DHT22;63092;43.582;19.528;2024-03-22T13:37:01;18.40;55.00
73360;DHT22;63092;43.582;19.528;2024-03-22T13:39:27;18.30;54.10
73360;DHT22;63092;43.582;19.528;2024-03-22T13:41:55;18.20;54.20
73360;DHT22;63092;43.582;19.528;2024-03-22T13:44:21;18.20;54.20
73360;DHT22;63092;43.582;19.528;2024-03-22T13:46:51;18.20;54.00
73360;DHT22;63092;43.582;19.528;2024-03-22T13:49:18;18.10;53.80
73360;DHT22;63092;43.582;19.528;2024-03-22T13:51:47;18.10;54.00
73360;DHT22;63092;43.582;19.528;2024-03-22T13:54:13;18.10;54.20
73360;DHT22;63092;43.582;19.528;2024-03-22T13:56:39;17.90;54.20
73360;DHT22;63092;43.582;19.528;2024-03-22T13:59:05;17.90;55.10
73360;DHT22;63092;43.582;19.528;2024-03-22T14:01:32;18.00;54.50
73360;DHT22;63092;43.582;19.528;2024-03-22T14:03:58;17.90;55.30
73360;DHT22;63092;43.582;19.528;2024-03-22T14:06:23;18.00;54.70
73360;DHT22;63092;43.582;19.528;2024-03-22T14:08:49;18.00;54.70
73360;DHT22;63092;43.582;19.528;2024-03-22T14:11:15;18.10;55.20
73360;DHT22;63092;43.582;19.528;2024-03-22T14:13:40;18.10;55.20
73360;DHT22;63092;43.582;19.528;2024-03-22T14:16:06;18.00;55.70
73360;DHT22;63092;43.582;19.528;2024-03-22T14:18:34;18.00;55.20
73360;DHT22;63092;43.582;19.528;2024-03-22T14:21:01;18.00;55.30
73360;DHT22;63092;43.582;19.528;2024-03-22T14:23:28;17.90;55.50
73360;DHT22;63092;43.582;19.528;2024-03-22T14:25:57;17.80;55.20
73360;DHT22;63092;43.582;19.528;2024-03-22T14:28:23;17.80;55.00
73360;DHT22;63092;43.582;19.528;2024-03-22T14:30:48;17.70;55.20
73360;DHT22;63092;43.582;19.528;2024-03-22T14:33:14;17.60;55.30
73360;DHT22;63092;43.582;19.528;2024-03-22T14:35:40;17.60;55.90
73360;DHT22;63092;43.582;19.528;2024-03-22T14:38:06;17.60;55.80
73360;DHT22;63092;43.582;19.528;2024-03-22T14:40:31;17.70;56.00
73360;DHT22;63092;43.582;19.528;2024-03-22T14:43:02;17.70;55.70
73360;DHT22;63092;43.582;19.528;2024-03-22T14:45:28;17.60;56.00
73360;DHT22;63092;43.582;19.528;2024-03-22T14:47:54;17.60;56.20
73360;DHT22;63092;43.582;19.528;2024-03-22T14:50:19;17.60;56.70
73360;DHT22;63092;43.582;19.528;2024-03-22T14:52:48;17.50;56.60
73360;DHT22;63092;43.582;19.528;2024-03-22T14:55:14;17.60;56.90
73360;DHT22;63092;43.582;19.528;2024-03-22T14:57:40;17.60;56.70
73360;DHT22;63092;43.582;19.528;2024-03-22T15:00:06;17.50;56.50
73360;DHT22;63092;43.582;19.528;2024-03-22T15:02:36;17.40;56.60
73360;DHT22;63092;43.582;19.528;2024-03-22T15:05:02;17.40;57.40
73360;DHT22;63092;43.582;19.528;2024-03-22T15:07:30;17.50;56.60
73360;DHT22;63092;43.582;19.528;2024-03-22T15:09:56;17.50;56.90
73360;DHT22;63092;43.582;19.528;2024-03-22T15:12:21;17.50;57.00
73360;DHT22;63092;43.582;19.528;2024-03-22T15:14:47;17.50;56.50
73360;DHT22;63092;43.582;19.528;2024-03-22T15:17:13;17.50;56.50
73360;DHT22;63092;43.582;19.528;2024-03-22T15:19:41;17.40;56.40
73360;DHT22;63092;43.582;19.528;2024-03-22T15:22:08;17.40;56.70
73360;DHT22;63092;43.582;19.528;2024-03-22T15:24:34;17.50;56.90